createdAt,value
2017-12-03T00:00:11.596Z,102065.45
2017-12-03T00:02:39.932Z,102073.80
2017-12-03T00:05:08.235Z,102067.81
2017-12-03T00:07:37.010Z,102069.93
2017-12-03T00:10:05.347Z,102079.52
2017-12-03T00:12:33.670Z,102076.98
2017-12-03T00:15:01.938Z,102075.34
2017-12-03T00:17:30.482Z,102070.76
2017-12-03T00:19:58.779Z,102074.86
2017-12-03T00:22:27.110Z,102070.43
2017-12-03T00:24:55.560Z,102062.81
2017-12-03T00:27:23.903Z,102075.59
2017-12-03T00:29:53.311Z,102071.16
2017-12-03T00:32:21.594Z,102069.66
2017-12-03T00:34:49.892Z,102066.72
2017-12-03T00:37:18.186Z,102062.08
2017-12-03T00:39:46.479Z,102057.41
2017-12-03T00:42:14.795Z,102056.77
2017-12-03T00:44:43.092Z,102055.45
2017-12-03T00:47:11.411Z,102052.91
2017-12-03T00:49:39.871Z,102050.63
2017-12-03T00:52:08.197Z,102047.44
2017-12-03T00:54:36.643Z,102046.52
2017-12-03T00:57:04.936Z,102040.54
2017-12-03T00:59:33.219Z,102039.97
2017-12-03T01:02:01.551Z,102035.70
2017-12-03T01:04:29.998Z,102030.47
2017-12-03T01:06:58.310Z,102027.28
2017-12-03T01:09:26.721Z,102029.81
2017-12-03T01:11:55.043Z,102034.15
2017-12-03T01:14:23.330Z,102031.20
2017-12-03T01:16:51.632Z,102033.67
2017-12-03T01:19:20.067Z,102028.73
2017-12-03T01:21:48.398Z,102024.49
2017-12-03T01:24:16.887Z,102022.34
2017-12-03T01:26:45.195Z,102020.32
2017-12-03T01:29:13.479Z,102019.25
2017-12-03T01:31:41.788Z,102017.77
2017-12-03T01:34:10.101Z,102016.97
2017-12-03T01:36:38.451Z,102015.23
2017-12-03T01:39:06.749Z,102013.83
2017-12-03T01:41:35.058Z,102013.11
2017-12-03T01:44:03.407Z,102022.84
2017-12-03T01:46:31.755Z,102019.91
2017-12-03T01:49:00.071Z,102015.79
2017-12-03T01:51:28.379Z,102008.94
2017-12-03T01:53:56.749Z,102005.58
2017-12-03T01:56:25.479Z,102007.13
2017-12-03T01:58:54.126Z,101998.11
2017-12-03T02:01:23.111Z,102001.00
2017-12-03T02:03:51.392Z,101998.11
2017-12-03T02:06:19.690Z,101999.44
2017-12-03T02:08:47.963Z,101994.03
2017-12-03T02:11:16.363Z,101998.36
2017-12-03T02:13:44.626Z,101988.77
2017-12-03T02:16:12.914Z,101987.64
2017-12-03T02:18:41.192Z,101991.24
2017-12-03T02:21:09.526Z,102000.31
2017-12-03T02:23:37.792Z,101989.34
2017-12-03T02:26:06.211Z,101990.58
2017-12-03T02:28:34.523Z,101985.73
2017-12-03T02:31:02.811Z,101979.34
2017-12-03T02:33:31.123Z,101979.29
2017-12-03T02:35:59.419Z,101979.76
2017-12-03T02:38:27.703Z,101979.50
2017-12-03T02:40:56.079Z,101970.74
2017-12-03T02:43:24.703Z,101971.00
2017-12-03T02:45:53.047Z,101971.09
2017-12-03T02:48:21.331Z,101964.98
2017-12-03T02:50:49.807Z,101960.80
2017-12-03T02:53:18.118Z,101957.33
2017-12-03T02:55:46.435Z,101958.72
2017-12-03T02:58:14.716Z,101952.20
2017-12-03T03:00:43.037Z,101950.38
2017-12-03T03:03:11.310Z,101945.66
2017-12-03T03:05:39.595Z,101947.62
2017-12-03T03:08:07.926Z,101952.75
2017-12-03T03:10:36.211Z,101951.11
2017-12-03T03:13:04.650Z,101949.30
2017-12-03T03:15:32.975Z,101947.69
2017-12-03T03:18:01.257Z,101942.44
2017-12-03T03:20:29.731Z,101941.62
2017-12-03T03:22:58.012Z,101937.85
2017-12-03T03:25:26.328Z,101935.09
2017-12-03T03:27:54.635Z,101930.92
2017-12-03T03:30:22.908Z,101927.00
2017-12-03T03:32:51.175Z,101928.55
2017-12-03T03:35:19.590Z,101932.73
2017-12-03T03:37:47.892Z,101934.78
2017-12-03T03:40:16.372Z,101933.48
2017-12-03T03:42:44.667Z,101931.27
2017-12-03T03:45:12.987Z,101920.36
2017-12-03T03:47:41.270Z,101916.95
2017-12-03T03:50:09.576Z,101920.45
2017-12-03T03:52:37.915Z,101911.22
2017-12-03T03:55:06.235Z,101916.53
2017-12-03T03:57:34.560Z,101907.43
2017-12-03T04:00:02.852Z,101914.98
2017-12-03T04:02:31.181Z,101909.33
2017-12-03T04:04:59.461Z,101912.11
2017-12-03T04:07:27.803Z,101908.91
2017-12-03T04:09:56.087Z,101904.33
2017-12-03T04:12:25.196Z,101902.37
2017-12-03T04:14:53.552Z,101906.95
2017-12-03T04:17:21.860Z,101902.52
2017-12-03T04:19:50.142Z,101904.17
2017-12-03T04:22:18.440Z,101901.23
2017-12-03T04:24:46.711Z,101907.11
2017-12-03T04:27:15.020Z,101906.12
2017-12-03T04:29:43.336Z,101902.05
2017-12-03T04:32:11.808Z,101897.63
2017-12-03T04:34:40.227Z,101898.29
2017-12-03T04:37:08.522Z,101900.82
2017-12-03T04:39:36.803Z,101895.67
2017-12-03T04:42:05.095Z,101894.84
2017-12-03T04:44:33.383Z,101886.81
2017-12-03T04:47:01.854Z,101892.62
2017-12-03T04:49:30.129Z,101890.58
2017-12-03T04:51:58.454Z,101885.92
2017-12-03T04:54:26.722Z,101887.06
2017-12-03T04:56:55.025Z,101874.30
2017-12-03T04:59:23.339Z,101878.15
2017-12-03T05:01:51.641Z,101869.30
2017-12-03T05:04:19.939Z,101864.30
2017-12-03T05:06:48.496Z,101861.77
2017-12-03T05:09:16.788Z,101858.98
2017-12-03T05:11:45.227Z,101861.36
2017-12-03T05:14:13.534Z,101853.42
2017-12-03T05:16:41.860Z,101855.38
2017-12-03T05:19:10.176Z,101852.03
2017-12-03T05:21:38.527Z,101845.64
2017-12-03T05:24:07.009Z,101847.86
2017-12-03T05:26:35.292Z,101843.69
2017-12-03T05:29:03.583Z,101847.70
2017-12-03T05:31:32.051Z,101847.95
2017-12-03T05:34:00.763Z,101850.73
2017-12-03T05:36:29.131Z,101840.43
2017-12-03T05:38:57.421Z,101842.95
2017-12-03T05:41:25.716Z,101832.81
2017-12-03T05:43:54.111Z,101838.03
2017-12-03T05:46:22.412Z,101840.23
2017-12-03T05:48:50.891Z,101840.43
2017-12-03T05:51:19.212Z,101833.53
2017-12-03T05:53:47.471Z,101833.28
2017-12-03T05:56:15.763Z,101824.52
2017-12-03T05:58:44.076Z,101836.98
2017-12-03T06:01:12.410Z,101832.08
2017-12-03T06:03:40.665Z,101835.84
2017-12-03T06:06:08.972Z,101833.63
2017-12-03T06:08:37.262Z,101832.45
2017-12-03T06:11:05.593Z,101827.91
2017-12-03T06:13:33.883Z,101824.72
2017-12-03T06:16:02.188Z,101821.59
2017-12-03T06:18:30.620Z,101822.41
2017-12-03T06:20:58.899Z,101827.24
2017-12-03T06:23:27.471Z,101818.64
2017-12-03T06:25:55.792Z,101822.98
2017-12-03T06:28:24.098Z,101828.44
2017-12-03T06:30:52.436Z,101825.09
2017-12-03T06:33:20.731Z,101824.94
2017-12-03T06:35:49.031Z,101832.20
2017-12-03T06:38:17.346Z,101835.30
2017-12-03T06:40:45.649Z,101824.68
2017-12-03T06:43:13.929Z,101828.28
2017-12-03T06:45:42.207Z,101830.23
2017-12-03T06:48:10.647Z,101824.58
2017-12-03T06:50:39.043Z,101824.52
2017-12-03T06:53:07.320Z,101831.95
2017-12-03T06:55:35.648Z,101829.99
2017-12-03T06:58:04.058Z,101826.16
2017-12-03T07:00:32.360Z,101832.39
2017-12-03T07:03:00.671Z,101839.41
2017-12-03T07:05:28.976Z,101838.37
2017-12-03T07:07:57.275Z,101831.64
2017-12-03T07:10:25.728Z,101829.27
2017-12-03T07:12:54.007Z,101834.67
2017-12-03T07:15:22.324Z,101831.83
2017-12-03T07:17:50.630Z,101832.88
2017-12-03T07:20:18.935Z,101824.94
2017-12-03T07:22:47.226Z,101821.27
2017-12-03T07:25:15.552Z,101830.13
2017-12-03T07:27:43.884Z,101833.88
2017-12-03T07:30:12.378Z,101828.06
2017-12-03T07:32:40.741Z,101833.37
2017-12-03T07:35:09.055Z,101839.92
2017-12-03T07:37:37.360Z,101833.00
2017-12-03T07:40:05.893Z,101836.19
2017-12-03T07:42:34.295Z,101831.38
2017-12-03T07:45:02.623Z,101826.13
2017-12-03T07:47:30.951Z,101822.53
2017-12-03T07:49:59.196Z,101834.48
2017-12-03T07:52:27.584Z,101826.55
2017-12-03T07:54:56.407Z,101833.03
2017-12-03T07:57:24.930Z,101832.93
2017-12-03T07:59:53.519Z,101832.68
2017-12-03T08:02:22.081Z,101835.14
2017-12-03T08:04:50.630Z,101830.72
2017-12-03T08:07:18.979Z,101837.92
2017-12-03T08:09:47.308Z,101840.39
2017-12-03T08:12:15.738Z,101836.53
2017-12-03T08:14:44.030Z,101830.97
2017-12-03T08:17:12.375Z,101839.83
2017-12-03T08:19:40.684Z,101845.20
2017-12-03T08:22:09.021Z,101842.20
2017-12-03T08:24:37.753Z,101835.97
2017-12-03T08:27:06.154Z,101838.59
2017-12-03T08:29:34.471Z,101838.49
2017-12-03T08:32:02.956Z,101837.92
2017-12-03T08:34:31.238Z,101831.53
2017-12-03T08:36:59.715Z,101838.08
2017-12-03T08:39:28.175Z,101830.55
2017-12-03T08:41:56.581Z,101828.50
2017-12-03T08:44:24.935Z,101832.11
2017-12-03T08:46:53.258Z,101831.70
2017-12-03T08:49:21.697Z,101831.28
2017-12-03T08:51:50.009Z,101829.11
2017-12-03T08:54:18.295Z,101827.45
2017-12-03T08:56:47.089Z,101828.91
2017-12-03T08:59:16.012Z,101826.95
2017-12-03T09:01:46.651Z,101822.94
2017-12-03T09:04:16.554Z,101821.80
2017-12-03T09:06:45.673Z,101816.23
2017-12-03T09:09:14.035Z,101813.80
2017-12-03T09:11:43.750Z,101806.02
2017-12-03T09:14:12.287Z,101797.56
2017-12-03T09:16:40.651Z,101793.55
2017-12-03T09:19:08.944Z,101790.92
2017-12-03T09:21:37.263Z,101789.53
2017-12-03T09:24:06.174Z,101793.55
2017-12-03T09:26:34.464Z,101791.43
2017-12-03T09:29:02.771Z,101788.65
2017-12-03T09:31:31.107Z,101791.02
2017-12-03T09:33:59.546Z,101793.39
2017-12-03T09:36:27.888Z,101789.06
2017-12-03T09:38:56.168Z,101781.21
2017-12-03T09:41:24.459Z,101775.39
2017-12-03T09:43:52.859Z,101774.41
2017-12-03T09:46:21.172Z,101770.55
2017-12-03T09:48:49.732Z,101766.62
2017-12-03T09:51:18.077Z,101772.77
2017-12-03T09:53:46.367Z,101760.89
2017-12-03T09:56:14.700Z,101755.45
2017-12-03T09:58:44.059Z,101751.02
2017-12-03T10:01:12.409Z,101750.92
2017-12-03T10:03:40.780Z,101743.45
2017-12-03T10:06:09.099Z,101738.51
2017-12-03T10:08:37.404Z,101733.19
2017-12-03T10:11:05.710Z,101733.83
2017-12-03T10:13:34.067Z,101732.46
2017-12-03T10:16:02.735Z,101721.94
2017-12-03T10:18:31.928Z,101724.53
2017-12-03T10:21:00.424Z,101712.48
2017-12-03T10:23:28.729Z,101711.03
2017-12-03T10:25:57.217Z,101702.17
2017-12-03T10:28:25.533Z,101703.73
2017-12-03T10:30:57.098Z,101700.20
2017-12-03T10:33:25.995Z,101692.69
2017-12-03T10:35:58.804Z,101689.25
2017-12-03T10:38:27.091Z,101686.54
2017-12-03T10:40:55.855Z,101689.48
2017-12-03T10:43:26.219Z,101687.47
2017-12-03T10:45:55.247Z,101685.97
2017-12-03T10:48:24.055Z,101681.81
2017-12-03T10:50:52.391Z,101674.14
2017-12-03T10:53:20.647Z,101671.84
2017-12-03T10:55:48.983Z,101673.39
2017-12-03T10:58:17.235Z,101671.18
2017-12-03T11:00:45.560Z,101664.90
2017-12-03T11:03:14.263Z,101666.70
2017-12-03T11:05:43.104Z,101656.30
2017-12-03T11:08:11.555Z,101659.35
2017-12-03T11:10:39.891Z,101656.41
2017-12-03T11:13:08.328Z,101658.20
2017-12-03T11:15:36.723Z,101658.70
2017-12-03T11:18:05.034Z,101647.72
2017-12-03T11:20:33.367Z,101648.13
2017-12-03T11:23:01.653Z,101639.52
2017-12-03T11:25:29.967Z,101640.62
2017-12-03T11:27:58.237Z,101631.28
2017-12-03T11:30:26.689Z,101631.85
2017-12-03T11:32:54.991Z,101626.03
2017-12-03T11:35:23.326Z,101617.98
2017-12-03T11:37:51.636Z,101619.38
2017-12-03T11:40:19.995Z,101614.16
2017-12-03T11:42:48.262Z,101605.45
2017-12-03T11:45:16.567Z,101598.08
2017-12-03T11:47:44.847Z,101597.09
2017-12-03T11:50:19.539Z,101602.02
2017-12-03T11:52:47.818Z,101591.45
2017-12-03T11:55:16.199Z,101586.20
2017-12-03T11:57:44.675Z,101579.76
2017-12-03T12:00:13.018Z,101577.00
2017-12-03T12:02:41.592Z,101579.55
2017-12-03T12:05:09.900Z,101577.77
2017-12-03T12:07:38.234Z,101583.55
2017-12-03T12:10:06.546Z,101568.92
2017-12-03T12:12:34.851Z,101572.41
2017-12-03T12:15:03.330Z,101562.94
2017-12-03T12:17:31.635Z,101550.52
2017-12-03T12:19:59.923Z,101550.58
2017-12-03T12:22:28.250Z,101552.37
2017-12-03T12:24:56.548Z,101541.48
2017-12-03T12:27:24.883Z,101531.91
2017-12-03T12:29:53.230Z,101535.42
2017-12-03T12:32:21.555Z,101531.82
2017-12-03T12:34:49.832Z,101533.05
2017-12-03T12:37:18.335Z,101526.86
2017-12-03T12:39:46.659Z,101524.56
2017-12-03T12:42:15.066Z,101526.45
2017-12-03T12:44:43.351Z,101519.00
2017-12-03T12:47:11.680Z,101522.19
2017-12-03T12:49:40.099Z,101515.67
2017-12-03T12:52:08.463Z,101511.13
2017-12-03T12:54:36.743Z,101515.26
2017-12-03T12:57:05.055Z,101516.08
2017-12-03T12:59:33.339Z,101517.39
2017-12-03T13:02:01.716Z,101513.38
2017-12-03T13:04:30.187Z,101508.30
2017-12-03T13:06:58.487Z,101502.48
2017-12-03T13:09:26.783Z,101501.59
2017-12-03T13:11:55.262Z,101495.53
2017-12-03T13:14:23.655Z,101485.30
2017-12-03T13:16:52.012Z,101495.44
2017-12-03T13:19:20.288Z,101484.31
2017-12-03T13:21:48.639Z,101476.70
2017-12-03T13:24:17.110Z,101478.91
2017-12-03T13:26:45.399Z,101479.09
2017-12-03T13:29:13.727Z,101476.31
2017-12-03T13:31:42.039Z,101474.52
2017-12-03T13:34:10.452Z,101467.56
2017-12-03T13:36:38.975Z,101474.68
2017-12-03T13:39:07.474Z,101461.83
2017-12-03T13:41:35.967Z,101459.06
2017-12-03T13:44:04.284Z,101465.38
2017-12-03T13:46:32.639Z,101461.67
2017-12-03T13:49:01.002Z,101459.38
2017-12-03T13:51:29.399Z,101452.91
2017-12-03T13:53:57.689Z,101447.39
2017-12-03T13:56:26.207Z,101454.22
2017-12-03T13:58:54.535Z,101452.81
2017-12-03T14:01:22.999Z,101447.50
2017-12-03T14:03:51.304Z,101443.30
2017-12-03T14:06:19.780Z,101445.86
2017-12-03T14:08:48.034Z,101436.96
2017-12-03T14:11:16.345Z,101439.20
2017-12-03T14:13:44.678Z,101430.88
2017-12-03T14:16:12.991Z,101433.91
2017-12-03T14:18:41.303Z,101435.06
2017-12-03T14:21:09.606Z,101436.87
2017-12-03T14:23:37.901Z,101437.77
2017-12-03T14:26:06.196Z,101444.45
2017-12-03T14:28:34.662Z,101443.68
2017-12-03T14:31:02.966Z,101448.82
2017-12-03T14:33:32.240Z,101446.42
2017-12-03T14:36:00.633Z,101440.36
2017-12-03T14:38:28.983Z,101448.59
2017-12-03T14:40:57.288Z,101454.25
2017-12-03T14:43:25.710Z,101448.44
2017-12-03T14:45:54.023Z,101446.51
2017-12-03T14:48:22.462Z,101441.75
2017-12-03T14:50:50.751Z,101435.91
2017-12-03T14:53:19.240Z,101442.70
2017-12-03T14:55:47.540Z,101439.80
2017-12-03T14:58:15.986Z,101437.44
2017-12-03T15:00:44.315Z,101430.69
2017-12-03T15:03:12.715Z,101426.59
2017-12-03T15:05:40.999Z,101420.11
2017-12-03T15:08:09.279Z,101419.72
2017-12-03T15:10:37.587Z,101416.48
2017-12-03T15:13:05.879Z,101420.86
2017-12-03T15:15:34.189Z,101420.95
2017-12-03T15:18:02.532Z,101415.95
2017-12-03T15:20:31.123Z,101403.59
2017-12-03T15:22:59.996Z,101413.50
2017-12-03T15:25:28.507Z,101407.77
2017-12-03T15:27:56.932Z,101406.08
2017-12-03T15:30:25.271Z,101411.16
2017-12-03T15:32:53.571Z,101405.72
2017-12-03T15:35:21.988Z,101404.00
2017-12-03T15:37:51.339Z,101398.59
2017-12-03T15:40:19.643Z,101398.95
2017-12-03T15:42:48.009Z,101404.17
2017-12-03T15:45:16.337Z,101397.32
2017-12-03T15:47:44.655Z,101396.22
2017-12-03T15:50:12.964Z,101403.17
2017-12-03T15:52:41.247Z,101400.39
2017-12-03T15:55:09.552Z,101394.42
2017-12-03T15:57:37.958Z,101387.98
2017-12-03T16:00:06.740Z,101396.75
2017-12-03T16:02:35.061Z,101397.28
2017-12-03T16:05:03.371Z,101395.97
2017-12-03T16:07:31.647Z,101394.62
2017-12-03T16:09:59.894Z,101401.39
2017-12-03T16:12:28.237Z,101393.89
2017-12-03T16:14:56.505Z,101389.34
2017-12-03T16:17:24.934Z,101391.34
2017-12-03T16:19:53.241Z,101383.36
2017-12-03T16:22:21.563Z,101385.16
2017-12-03T16:24:49.828Z,101382.55
2017-12-03T16:27:18.142Z,101383.48
2017-12-03T16:29:46.500Z,101383.98
2017-12-03T16:32:14.831Z,101378.12
2017-12-03T16:34:43.381Z,101378.28
2017-12-03T16:37:11.736Z,101384.27
2017-12-03T16:39:40.002Z,101382.63
2017-12-03T16:42:08.507Z,101388.20
2017-12-03T16:44:36.758Z,101379.30
2017-12-03T16:47:05.087Z,101383.98
2017-12-03T16:49:33.348Z,101378.90
2017-12-03T16:52:01.823Z,101374.72
2017-12-03T16:54:30.087Z,101379.15
2017-12-03T16:56:58.393Z,101385.70
2017-12-03T16:59:26.832Z,101381.52
2017-12-03T17:01:55.155Z,101385.70
2017-12-03T17:04:23.457Z,101389.17
2017-12-03T17:06:51.840Z,101394.91
2017-12-03T17:09:20.140Z,101391.63
2017-12-03T17:11:48.487Z,101385.66
2017-12-03T17:14:16.820Z,101396.22
2017-12-03T17:16:45.291Z,101398.30
2017-12-03T17:19:13.578Z,101393.63
2017-12-03T17:21:41.885Z,101393.80
2017-12-03T17:24:10.180Z,101396.99
2017-12-03T17:26:38.480Z,101386.95
2017-12-03T17:29:07.184Z,101394.48
2017-12-03T17:31:35.518Z,101391.87
2017-12-03T17:34:03.823Z,101385.48
2017-12-03T17:36:32.132Z,101389.41
2017-12-03T17:39:00.615Z,101386.98
2017-12-03T17:41:28.919Z,101382.49
2017-12-03T17:43:58.234Z,101377.82
2017-12-03T17:46:27.179Z,101374.22
2017-12-03T17:48:55.477Z,101377.34
2017-12-03T17:51:23.830Z,101376.88
2017-12-03T17:53:52.288Z,101377.28
2017-12-03T17:56:51.603Z,101377.37
2017-12-03T17:59:19.891Z,101379.41
2017-12-03T18:01:48.819Z,101374.02
2017-12-03T18:04:17.235Z,101371.06
2017-12-03T18:06:45.526Z,101372.63
2017-12-03T18:09:13.822Z,101371.56
2017-12-03T18:11:42.119Z,101365.58
2017-12-03T18:14:10.440Z,101364.55
2017-12-03T18:16:38.731Z,101368.64
2017-12-03T18:19:07.075Z,101370.12
2017-12-03T18:21:35.392Z,101364.03
2017-12-03T18:24:03.659Z,101371.31
2017-12-03T18:26:31.971Z,101369.63
2017-12-03T18:29:00.282Z,101364.47
2017-12-03T18:31:28.603Z,101370.03
2017-12-03T18:33:57.051Z,101371.02
2017-12-03T18:36:26.723Z,101373.64
2017-12-03T18:38:55.428Z,101371.43
2017-12-03T18:41:23.738Z,101367.01
2017-12-03T18:43:53.823Z,101362.95
2017-12-03T18:46:23.756Z,101364.88
2017-12-03T18:48:54.163Z,101360.50
2017-12-03T18:51:25.616Z,101361.36
2017-12-03T18:53:55.733Z,101361.61
2017-12-03T18:56:26.133Z,101357.84
2017-12-03T18:58:57.163Z,101351.73
2017-12-03T19:01:29.367Z,101355.59
2017-12-03T19:03:59.701Z,101361.97
2017-12-03T19:06:33.722Z,101364.64
2017-12-03T19:09:11.523Z,101363.73
2017-12-03T19:11:47.080Z,101355.75
2017-12-03T19:14:16.599Z,101355.99
2017-12-03T19:16:45.155Z,101355.91
2017-12-03T19:19:13.485Z,101356.16
2017-12-03T19:21:42.547Z,101356.98
2017-12-03T19:24:11.214Z,101350.64
2017-12-03T19:26:39.860Z,101346.06
2017-12-03T19:29:08.409Z,101348.22
2017-12-03T19:31:36.920Z,101349.20
2017-12-03T19:34:05.954Z,101341.42
2017-12-03T19:36:34.331Z,101339.05
2017-12-03T19:39:02.662Z,101339.77
2017-12-03T19:41:31.012Z,101335.59
2017-12-03T19:43:59.335Z,101334.87
2017-12-03T19:46:27.692Z,101337.42
2017-12-03T19:48:56.087Z,101336.27
2017-12-03T19:51:24.538Z,101335.18
2017-12-03T19:53:52.834Z,101334.06
2017-12-03T19:56:21.310Z,101338.13
2017-12-03T19:58:49.606Z,101343.06
2017-12-03T20:01:18.003Z,101331.41
2017-12-03T20:03:46.503Z,101337.42
2017-12-03T20:06:14.879Z,101332.80
2017-12-03T20:08:43.391Z,101328.63
2017-12-03T20:11:11.862Z,101328.55
2017-12-03T20:13:40.159Z,101321.59
2017-12-03T20:16:08.470Z,101321.19
2017-12-03T20:18:36.738Z,101327.81
2017-12-03T20:21:05.061Z,101322.41
2017-12-03T20:23:33.524Z,101328.96
2017-12-03T20:26:01.828Z,101335.34
2017-12-03T20:28:30.174Z,101340.50
2017-12-03T20:30:59.822Z,101341.16
2017-12-03T20:33:28.095Z,101345.66
2017-12-03T20:35:56.903Z,101339.47
2017-12-03T20:38:25.246Z,101338.65
2017-12-03T20:40:53.975Z,101343.64
2017-12-03T20:43:22.436Z,101328.91
2017-12-03T20:45:50.760Z,101331.28
2017-12-03T20:48:19.896Z,101333.30
2017-12-03T20:50:48.283Z,101329.13
2017-12-03T20:53:16.739Z,101336.48
2017-12-03T20:55:45.483Z,101335.30
2017-12-03T20:58:13.919Z,101324.33
2017-12-03T21:00:42.222Z,101319.59
2017-12-03T21:03:10.519Z,101330.30
2017-12-03T21:05:38.823Z,101326.70
2017-12-03T21:08:07.099Z,101317.63
2017-12-03T21:10:35.453Z,101324.98
2017-12-03T21:13:03.854Z,101318.36
2017-12-03T21:15:32.551Z,101317.38
2017-12-03T21:18:00.927Z,101313.37
2017-12-03T21:20:29.331Z,101315.16
2017-12-03T21:22:57.631Z,101307.69
2017-12-03T21:25:25.947Z,101315.57
2017-12-03T21:27:54.335Z,101321.38
2017-12-03T21:30:22.655Z,101323.76
2017-12-03T21:32:50.963Z,101316.20
2017-12-03T21:35:19.267Z,101316.28
2017-12-03T21:37:47.618Z,101315.05
2017-12-03T21:40:16.156Z,101311.94
2017-12-03T21:42:44.442Z,101323.39
2017-12-03T21:45:12.944Z,101325.44
2017-12-03T21:47:41.389Z,101327.07
2017-12-03T21:50:10.940Z,101329.61
2017-12-03T21:52:39.628Z,101324.20
2017-12-03T21:55:08.208Z,101335.70
2017-12-03T21:57:36.466Z,101332.51
2017-12-03T22:00:05.771Z,101330.95
2017-12-03T22:02:34.211Z,101329.78
2017-12-03T22:05:02.704Z,101338.69
2017-12-03T22:07:31.085Z,101341.55
2017-12-03T22:09:59.350Z,101335.59
2017-12-03T22:12:27.985Z,101330.19
2017-12-03T22:14:56.267Z,101337.80
2017-12-03T22:17:24.596Z,101323.31
2017-12-03T22:19:52.891Z,101320.94
2017-12-03T22:22:21.299Z,101306.69
2017-12-03T22:24:49.563Z,101322.98
2017-12-03T22:27:17.884Z,101320.94
2017-12-03T22:29:46.159Z,101314.47
2017-12-03T22:32:14.492Z,101316.27
2017-12-03T22:34:42.984Z,101309.47
2017-12-03T22:37:11.426Z,101306.69
2017-12-03T22:39:39.894Z,101308.70
2017-12-03T22:42:10.791Z,101322.45
2017-12-03T22:44:41.493Z,101316.27
2017-12-03T22:47:11.985Z,101321.06
2017-12-03T22:49:40.914Z,101312.30
2017-12-03T22:52:09.352Z,101317.13
2017-12-03T22:54:37.663Z,101303.80
2017-12-03T22:57:06.111Z,101319.27
2017-12-03T22:59:34.479Z,101319.84
2017-12-03T23:02:02.835Z,101312.67
2017-12-03T23:04:31.139Z,101303.66
2017-12-03T23:06:59.443Z,101307.59
2017-12-03T23:09:27.743Z,101307.11
2017-12-03T23:11:56.126Z,101309.16
2017-12-03T23:14:24.424Z,101310.88
2017-12-03T23:16:52.722Z,101309.48
2017-12-03T23:19:21.086Z,101301.66
2017-12-03T23:21:49.394Z,101303.39
2017-12-03T23:24:17.747Z,101300.80
2017-12-03T23:26:46.233Z,101305.17
2017-12-03T23:29:14.511Z,101294.21
2017-12-03T23:31:42.831Z,101295.44
2017-12-03T23:34:11.174Z,101293.31
2017-12-03T23:36:39.591Z,101288.32
2017-12-03T23:39:08.223Z,101288.00
2017-12-03T23:41:36.575Z,101286.61
2017-12-03T23:44:04.910Z,101264.80
2017-12-03T23:46:33.291Z,101265.13
2017-12-03T23:49:01.906Z,101274.23
2017-12-03T23:51:30.219Z,101280.30
2017-12-03T23:53:58.630Z,101291.09
2017-12-03T23:56:26.926Z,101286.19
2017-12-03T23:58:55.275Z,101297.66
